Time;durP1;ratioP1;P1;durP2;ratioP2;P2;SDS_P1;SDS_P2;PMS_P1;PMS_P2;Temp;Humidity;BMP_temperature;BMP_pressure;BME280_temperature;BME280_humidity;BME280_pressure;Samples;Min_cycle;Max_cycle;Signal;HPM_P1;HPM_P2
2021/03/15 00:01:03;;;;;;;4.60;2.67;;;22.90;49.60;;;;;;5033926;28;20450;-67
2021/03/15 00:03:28;;;;;;;3.90;2.50;;;22.90;49.70;;;;;;5034184;28;20414;-67
2021/03/15 00:05:54;;;;;;;4.20;2.40;;;22.90;49.70;;;;;;5034229;28;20931;-67
2021/03/15 00:08:20;;;;;;;4.87;2.37;;;22.90;49.70;;;;;;5033984;28;20289;-67
2021/03/15 00:10:46;;;;;;;3.27;1.97;;;22.90;49.70;;;;;;5034309;28;20449;-65
2021/03/15 00:13:14;;;;;;;3.30;2.50;;;22.90;49.80;;;;;;5034137;28;20171;-67
2021/03/15 00:15:41;;;;;;;6.27;4.00;;;22.90;49.80;;;;;;5034055;28;20278;-67
2021/03/15 00:18:07;;;;;;;3.97;2.53;;;22.80;49.70;;;;;;5033839;28;20916;-66
2021/03/15 00:20:33;;;;;;;4.00;2.30;;;22.80;49.80;;;;;;5033907;28;20492;-67
2021/03/15 00:22:59;;;;;;;2.90;2.20;;;22.80;49.80;;;;;;5033816;28;20433;-67
2021/03/15 00:25:24;;;;;;;3.73;2.30;;;22.80;49.80;;;;;;5033817;28;20171;-67
2021/03/15 00:27:50;;;;;;;3.60;2.43;;;22.80;49.80;;;;;;5032425;28;20293;-67
2021/03/15 00:30:17;;;;;;;4.53;2.40;;;22.80;49.80;;;;;;5033734;28;20187;-67
2021/03/15 00:32:45;;;;;;;4.87;2.30;;;22.80;49.90;;;;;;5033957;28;20164;-65
2021/03/15 00:35:12;;;;;;;3.70;2.63;;;22.80;49.90;;;;;;5032349;28;20468;-66
2021/03/15 00:37:38;;;;;;;4.33;2.03;;;22.80;49.90;;;;;;5033899;28;20517;-65
2021/03/15 00:40:07;;;;;;;5.00;2.40;;;22.80;50.00;;;;;;5033451;28;20422;-65
2021/03/15 00:42:33;;;;;;;4.67;2.40;;;22.80;50.00;;;;;;5033546;28;20406;-65
2021/03/15 00:44:59;;;;;;;3.20;1.90;;;22.70;49.90;;;;;;5033517;28;20921;-65
2021/03/15 00:47:25;;;;;;;4.30;2.33;;;22.70;50.00;;;;;;5033378;28;20461;-65
2021/03/15 00:49:51;;;;;;;3.40;2.30;;;22.70;50.00;;;;;;5032074;28;20192;-65
2021/03/15 00:52:16;;;;;;;4.00;2.63;;;22.70;50.00;;;;;;5033639;28;20433;-64
2021/03/15 00:54:42;;;;;;;7.23;3.03;;;22.70;50.00;;;;;;5033309;28;20164;-65
2021/03/15 00:57:07;;;;;;;4.80;2.73;;;22.70;50.00;;;;;;5033251;28;20732;-65
2021/03/15 00:59:33;;;;;;;4.60;2.67;;;22.70;50.00;;;;;;5033368;28;20541;-65
2021/03/15 01:01:58;;;;;;;4.27;2.40;;;22.70;50.10;;;;;;5033191;28;20168;-68
2021/03/15 01:04:25;;;;;;;4.63;2.40;;;22.60;50.00;;;;;;5033402;28;20567;-65
2021/03/15 01:06:51;;;;;;;4.40;2.60;;;22.70;50.10;;;;;;5031900;28;20258;-65
2021/03/15 01:09:17;;;;;;;4.40;2.37;;;22.60;50.00;;;;;;5031704;28;20581;-66
2021/03/15 01:11:43;;;;;;;3.90;2.50;;;22.60;50.10;;;;;;5033150;28;20191;-65
2021/03/15 01:14:09;;;;;;;3.77;2.73;;;22.60;50.10;;;;;;5033364;28;20786;-65
2021/03/15 01:16:35;;;;;;;2.50;2.17;;;22.60;50.10;;;;;;5033178;28;20172;-66
2021/03/15 01:19:01;;;;;;;4.57;2.87;;;22.60;50.00;;;;;;5033007;28;20429;-67
2021/03/15 01:21:27;;;;;;;2.67;2.20;;;22.60;50.10;;;;;;5033299;28;20410;-65
2021/03/15 01:23:53;;;;;;;3.07;2.33;;;22.60;50.10;;;;;;5032674;28;20192;-68
2021/03/15 01:26:19;;;;;;;3.13;2.03;;;22.60;50.10;;;;;;5032953;28;20947;-64
2021/03/15 01:28:45;;;;;;;3.00;2.43;;;22.60;50.10;;;;;;5031560;28;20466;-65
2021/03/15 01:31:11;;;;;;;4.47;2.17;;;22.60;50.10;;;;;;5032954;28;20203;-67
2021/03/15 01:33:37;;;;;;;4.60;2.30;;;22.50;49.90;;;;;;5032887;28;20429;-67
2021/03/15 01:36:03;;;;;;;4.10;2.23;;;22.60;49.80;;;;;;5031880;28;20795;-67
2021/03/15 01:38:29;;;;;;;3.67;2.27;;;22.50;49.70;;;;;;5033084;28;20211;-67
2021/03/15 01:40:54;;;;;;;3.00;1.73;;;22.50;49.80;;;;;;5032793;28;20410;-66
2021/03/15 01:43:20;;;;;;;2.10;1.90;;;22.50;49.80;;;;;;5032756;28;20183;-66
2021/03/15 01:45:46;;;;;;;2.53;2.03;;;22.50;50.00;;;;;;5031518;28;20333;-65
2021/03/15 01:48:19;;;;;;;3.87;2.07;;;22.50;49.90;;;;;;5032610;28;20206;-69
2021/03/15 01:50:47;;;;;;;4.83;2.40;;;22.50;50.00;;;;;;5032790;28;20163;-67
2021/03/15 01:53:15;;;;;;;3.70;2.17;;;22.50;50.00;;;;;;5031445;28;20472;-68
2021/03/15 01:55:41;;;;;;;3.13;1.80;;;22.50;50.00;;;;;;5032669;28;20406;-66
2021/03/15 01:58:07;;;;;;;4.10;2.23;;;22.50;50.00;;;;;;5032513;28;20410;-67
2021/03/15 02:00:33;;;;;;;3.30;2.30;;;22.50;50.00;;;;;;5031411;28;20426;-67
2021/03/15 02:03:00;;;;;;;3.00;2.00;;;22.40;50.00;;;;;;5032627;28;20255;-66
2021/03/15 02:05:28;;;;;;;3.90;2.00;;;22.50;50.10;;;;;;5032621;28;20199;-67
2021/03/15 02:07:54;;;;;;;2.77;2.40;;;22.50;50.10;;;;;;5032533;28;20453;-65
2021/03/15 02:10:20;;;;;;;4.60;2.00;;;22.40;50.00;;;;;;5032525;28;20917;-66
2021/03/15 02:13:04;;;;;;;2.40;1.70;;;22.50;50.10;;;;;;5032512;28;20414;-66
2021/03/15 02:15:41;;;;;;;3.00;2.03;;;22.50;50.10;;;;;;5032588;28;20386;-66
2021/03/15 02:18:20;;;;;;;3.20;2.17;;;22.40;50.00;;;;;;5032719;28;20388;-66
2021/03/15 02:21:19;;;;;;;2.63;1.90;;;22.50;50.20;;;;;;5032783;28;20870;-66
2021/03/15 02:23:53;;;;;;;3.90;2.10;;;22.40;50.00;;;;;;5032897;28;20741;-65
2021/03/15 02:26:43;;;;;;;3.87;2.40;;;22.40;50.10;;;;;;5032753;28;20761;-65
2021/03/15 02:29:39;;;;;;;2.43;1.80;;;22.40;50.10;;;;;;5032234;28;20461;-66
2021/03/15 02:32:23;;;;;;;3.77;1.93;;;22.40;50.10;;;;;;5032373;28;20384;-66
2021/03/15 02:35:21;;;;;;;3.60;1.90;;;22.40;50.10;;;;;;5032673;28;20993;-67
2021/03/15 02:37:49;;;;;;;2.70;1.83;;;22.40;50.20;;;;;;5035634;28;20422;-66
2021/03/15 02:40:27;;;;;;;2.60;2.17;;;22.40;50.20;;;;;;5035703;28;20525;-66
2021/03/15 02:42:54;;;;;;;3.23;2.10;;;22.40;50.20;;;;;;5035838;28;20387;-66
2021/03/15 02:45:20;;;;;;;3.23;2.10;;;22.30;50.10;;;;;;5035686;28;20431;-66
2021/03/15 02:47:49;;;;;;;2.67;2.03;;;22.30;50.10;;;;;;5036095;28;20957;-67
2021/03/15 02:50:15;;;;;;;2.90;1.73;;;22.30;50.10;;;;;;5035636;28;20422;-66
2021/03/15 02:52:47;;;;;;;3.40;1.90;;;22.30;50.10;;;;;;5035637;28;20776;-67
2021/03/15 02:55:17;;;;;;;2.50;1.63;;;22.40;50.20;;;;;;5035620;28;20889;-67
2021/03/15 02:57:45;;;;;;;2.87;1.63;;;22.30;50.10;;;;;;5035486;28;20410;-67
2021/03/15 03:00:14;;;;;;;4.43;1.80;;;22.30;50.10;;;;;;5034157;28;20847;-67
2021/03/15 03:02:44;;;;;;;3.10;2.00;;;22.30;50.10;;;;;;5035430;28;20505;-67
2021/03/15 03:05:11;;;;;;;4.63;2.07;;;22.30;50.10;;;;;;5035326;28;20460;-66
2021/03/15 03:07:40;;;;;;;2.30;1.70;;;22.30;50.10;;;;;;5034003;28;20458;-67
2021/03/15 03:10:08;;;;;;;2.33;1.60;;;22.30;50.10;;;;;;5035275;28;21014;-68
2021/03/15 03:12:36;;;;;;;2.10;1.60;;;22.30;50.10;;;;;;5035174;28;20442;-67
2021/03/15 03:15:05;;;;;;;2.37;1.60;;;22.30;50.10;;;;;;5035405;28;20460;-68
2021/03/15 03:17:37;;;;;;;2.47;1.83;;;22.30;50.30;;;;;;5035097;28;20462;-67
2021/03/15 03:20:08;;;;;;;2.40;1.73;;;22.30;50.10;;;;;;5035058;28;20918;-67
2021/03/15 03:22:38;;;;;;;2.30;1.70;;;22.30;50.20;;;;;;5035080;28;20391;-67
2021/03/15 03:25:06;;;;;;;2.40;1.83;;;22.30;50.10;;;;;;5035280;28;20524;-67
2021/03/15 03:27:32;;;;;;;1.73;1.50;;;22.30;50.10;;;;;;5034850;28;20455;-67
2021/03/15 03:30:00;;;;;;;3.30;1.90;;;22.30;50.20;;;;;;5034758;28;20419;-67
2021/03/15 03:32:27;;;;;;;1.70;1.53;;;22.30;50.10;;;;;;5035618;28;20414;-67
2021/03/15 03:34:54;;;;;;;2.33;1.80;;;22.30;50.10;;;;;;5035242;28;20919;-67
2021/03/15 03:37:20;;;;;;;2.80;2.10;;;22.30;50.10;;;;;;5034624;28;20418;-67
2021/03/15 03:39:46;;;;;;;2.10;1.70;;;22.30;50.10;;;;;;5034619;28;20429;-67
2021/03/15 03:42:12;;;;;;;3.10;2.07;;;22.20;50.10;;;;;;5034728;28;20194;-67
2021/03/15 03:44:37;;;;;;;2.43;1.93;;;22.30;50.20;;;;;;5034724;28;20765;-67
2021/03/15 03:47:03;;;;;;;3.23;1.63;;;22.20;50.10;;;;;;5034386;28;20164;-67
2021/03/15 03:49:29;;;;;;;2.67;1.83;;;22.20;50.10;;;;;;5034460;28;20218;-67
2021/03/15 03:52:00;;;;;;;2.40;1.70;;;22.30;50.20;;;;;;5034760;28;20183;-67
2021/03/15 03:54:30;;;;;;;2.33;1.77;;;22.30;50.20;;;;;;5034739;28;20635;-67
2021/03/15 03:57:14;;;;;;;2.80;1.70;;;22.20;50.10;;;;;;5034395;28;20407;-67
2021/03/15 03:59:45;;;;;;;2.00;1.77;;;22.30;50.20;;;;;;5034323;28;20433;-65
2021/03/15 04:02:12;;;;;;;2.67;1.50;;;22.20;50.20;;;;;;5034330;28;20432;-65
2021/03/15 04:04:51;;;;;;;3.03;2.73;;;22.20;50.20;;;;;;5034234;28;20418;-68
2021/03/15 04:07:27;;;;;;;2.87;1.90;;;22.20;50.20;;;;;;5033062;28;20403;-67
2021/03/15 04:10:05;;;;;;;2.80;1.30;;;22.20;50.20;;;;;;5034114;28;20426;-67
2021/03/15 04:12:33;;;;;;;2.53;1.80;;;22.20;50.20;;;;;;5034155;28;20398;-67
2021/03/15 04:15:01;;;;;;;3.27;2.10;;;22.20;50.20;;;;;;5034018;28;20398;-67
2021/03/15 04:17:33;;;;;;;2.20;1.60;;;22.20;50.20;;;;;;5034000;28;20410;-67
2021/03/15 04:20:15;;;;;;;2.30;1.53;;;22.20;50.20;;;;;;5034055;28;20469;-67
2021/03/15 04:22:46;;;;;;;2.23;1.40;;;22.20;50.20;;;;;;5032643;28;20410;-67
2021/03/15 04:25:14;;;;;;;2.60;1.60;;;22.20;50.20;;;;;;5034172;28;20391;-67
2021/03/15 04:27:43;;;;;;;2.83;1.60;;;22.20;50.20;;;;;;5033709;28;20446;-67
2021/03/15 04:30:12;;;;;;;2.20;1.60;;;22.20;50.20;;;;;;5033694;28;20422;-67
2021/03/15 04:32:40;;;;;;;2.53;1.30;;;22.20;50.20;;;;;;5033663;28;20964;-67
2021/03/15 04:35:07;;;;;;;2.00;1.60;;;22.20;50.20;;;;;;5033687;28;20406;-67
2021/03/15 04:37:34;;;;;;;2.97;1.47;;;22.10;50.70;;;;;;5033663;28;20930;-67
2021/03/15 04:40:00;;;;;;;2.93;1.40;;;22.10;50.20;;;;;;5033502;28;20809;-67
2021/03/15 04:42:25;;;;;;;2.80;1.33;;;22.10;50.10;;;;;;5033524;28;20746;-67
2021/03/15 04:44:51;;;;;;;2.37;1.70;;;22.10;50.20;;;;;;5033560;28;20410;-67
2021/03/15 04:47:17;;;;;;;1.60;1.20;;;22.10;50.10;;;;;;5033653;28;20179;-67
2021/03/15 04:49:44;;;;;;;1.60;1.40;;;22.10;50.20;;;;;;5033396;28;20575;-67
2021/03/15 04:52:12;;;;;;;1.90;1.53;;;22.10;50.20;;;;;;5033401;28;20898;-67
2021/03/15 04:54:38;;;;;;;2.43;1.73;;;22.10;50.20;;;;;;5033409;28;20457;-67
2021/03/15 04:57:05;;;;;;;2.43;1.83;;;22.10;50.20;;;;;;5033350;28;20399;-67
2021/03/15 04:59:33;;;;;;;2.77;1.93;;;22.10;50.20;;;;;;5032457;28;20430;-67
2021/03/15 05:02:00;;;;;;;3.23;1.70;;;22.10;50.30;;;;;;5033273;28;20437;-68
2021/03/15 05:04:27;;;;;;;1.60;1.30;;;22.10;50.30;;;;;;5033258;28;20418;-67
2021/03/15 05:06:53;;;;;;;2.20;1.37;;;22.00;50.30;;;;;;5033194;28;20778;-66
2021/03/15 05:09:19;;;;;;;2.30;1.20;;;22.00;50.30;;;;;;5033006;28;20469;-67
2021/03/15 05:11:45;;;;;;;3.37;1.90;;;22.00;50.30;;;;;;5031876;28;20453;-67
2021/03/15 05:14:12;;;;;;;2.47;1.70;;;22.00;50.30;;;;;;5033404;28;20402;-67
2021/03/15 05:16:40;;;;;;;1.70;1.37;;;22.00;50.30;;;;;;5033137;28;20433;-66
2021/03/15 05:19:08;;;;;;;2.10;1.33;;;22.00;50.30;;;;;;5032931;28;20430;-67
2021/03/15 05:21:39;;;;;;;2.60;1.67;;;22.00;50.40;;;;;;5033188;28;20449;-67
2021/03/15 05:24:05;;;;;;;2.83;1.40;;;22.00;50.30;;;;;;5033058;28;20419;-67
2021/03/15 05:26:33;;;;;;;2.00;1.43;;;22.00;50.40;;;;;;5032981;28;20457;-67
2021/03/15 05:29:00;;;;;;;1.67;1.40;;;22.00;50.40;;;;;;5032756;28;20454;-67
2021/03/15 05:31:28;;;;;;;2.53;1.60;;;22.00;50.40;;;;;;5032866;28;20406;-67
2021/03/15 05:33:56;;;;;;;2.53;1.50;;;22.00;50.40;;;;;;5033174;28;20405;-67
2021/03/15 05:36:24;;;;;;;1.87;1.30;;;22.00;50.30;;;;;;5032699;28;20427;-67
2021/03/15 05:38:50;;;;;;;2.43;1.50;;;22.00;50.30;;;;;;5032772;28;20435;-67
2021/03/15 05:41:18;;;;;;;1.70;1.43;;;22.00;50.30;;;;;;5032834;28;20414;-67
2021/03/15 05:44:19;;;;;;;2.90;1.60;;;22.00;50.30;;;;;;5032774;28;20641;-66
2021/03/15 05:47:16;;;;;;;2.07;1.60;;;22.00;50.20;;;;;;5032139;28;20516;-69
2021/03/15 05:50:09;;;;;;;1.70;1.50;;;22.00;50.20;;;;;;5032697;28;20436;-68
2021/03/15 05:53:06;;;;;;;2.10;1.40;;;22.00;50.20;;;;;;5032812;28;20482;-67
2021/03/15 05:55:49;;;;;;;1.73;1.37;;;22.10;50.20;;;;;;5032676;28;20529;-67
2021/03/15 05:58:54;;;;;;;2.13;1.30;;;22.10;50.10;;;;;;5032532;28;20920;-68
2021/03/15 06:01:31;;;;;;;1.53;1.10;;;22.10;50.10;;;;;;5032640;28;20397;-67
2021/03/15 06:03:56;;;;;;;2.00;1.50;;;22.10;50.10;;;;;;5032803;28;20394;-67
2021/03/15 06:06:23;;;;;;;1.80;1.50;;;22.10;50.10;;;;;;5032637;28;20481;-67
2021/03/15 06:08:55;;;;;;;2.10;1.50;;;22.10;50.10;;;;;;5032461;28;20199;-67
2021/03/15 06:11:24;;;;;;;2.33;1.30;;;22.20;50.10;;;;;;5035928;28;20409;-68
2021/03/15 06:13:50;;;;;;;1.20;1.10;;;22.10;50.00;;;;;;5036244;28;20410;-66
2021/03/15 06:16:16;;;;;;;1.97;1.37;;;22.10;49.90;;;;;;5036523;28;20422;-68
2021/03/15 06:18:44;;;;;;;2.57;1.70;;;22.20;50.00;;;;;;5036413;28;20426;-67
2021/03/15 06:21:10;;;;;;;1.40;1.20;;;22.20;50.50;;;;;;5036144;28;20456;-68
2021/03/15 06:23:37;;;;;;;1.97;1.17;;;22.20;50.00;;;;;;5036047;28;20420;-67
2021/03/15 06:26:03;;;;;;;1.80;1.30;;;22.20;49.90;;;;;;5034782;28;20961;-67
2021/03/15 06:28:29;;;;;;;2.03;1.33;;;22.20;49.90;;;;;;5035928;28;20480;-68
2021/03/15 06:30:55;;;;;;;1.77;1.50;;;22.20;49.90;;;;;;5036003;28;20406;-68
2021/03/15 06:33:22;;;;;;;2.00;1.40;;;22.20;49.90;;;;;;5036197;28;20245;-68
2021/03/15 06:36:03;;;;;;;2.13;1.10;;;22.30;50.00;;;;;;5036071;28;20410;-67
2021/03/15 06:38:32;;;;;;;2.57;1.60;;;22.30;50.00;;;;;;5035842;28;20426;-67
2021/03/15 06:41:05;;;;;;;1.70;1.20;;;22.20;49.90;;;;;;5035868;28;20468;-68
2021/03/15 06:43:31;;;;;;;1.40;1.20;;;22.30;50.00;;;;;;5034457;28;20930;-67
2021/03/15 06:45:57;;;;;;;2.30;1.30;;;22.30;50.00;;;;;;5035679;28;20417;-67
2021/03/15 06:48:23;;;;;;;1.50;1.27;;;22.20;49.90;;;;;;5035705;28;20450;-66
2021/03/15 06:50:50;;;;;;;1.97;1.10;;;22.20;49.90;;;;;;5035639;28;20457;-68
2021/03/15 06:53:16;;;;;;;2.20;1.33;;;22.20;49.90;;;;;;5035686;28;20468;-67
2021/03/15 06:55:41;;;;;;;1.77;1.20;;;22.20;49.90;;;;;;5034260;28;20501;-68
2021/03/15 06:58:28;;;;;;;1.90;1.40;;;22.30;49.90;;;;;;5035427;28;20218;-67
2021/03/15 07:01:16;;;;;;;2.27;1.83;;;22.30;49.90;;;;;;5035796;28;20175;-68
2021/03/15 07:03:43;;;;;;;2.50;1.30;;;22.30;49.90;;;;;;5035304;28;20410;-67
2021/03/15 07:06:10;;;;;;;1.70;1.30;;;22.20;49.90;;;;;;5034079;28;20426;-67
2021/03/15 07:08:36;;;;;;;2.03;1.20;;;22.20;49.90;;;;;;5033944;28;20572;-67
2021/03/15 07:11:02;;;;;;;1.73;1.13;;;22.30;50.00;;;;;;5033990;28;20510;-67
2021/03/15 07:13:34;;;;;;;1.33;1.00;;;22.30;50.00;;;;;;5035274;28;20497;-67
2021/03/15 07:16:00;;;;;;;1.63;1.33;;;22.30;49.90;;;;;;5035182;28;20662;-66
2021/03/15 07:18:31;;;;;;;1.90;1.13;;;22.30;50.00;;;;;;5035536;28;20415;-67
2021/03/15 07:21:02;;;;;;;1.53;1.10;;;22.30;49.90;;;;;;5033331;28;20176;-67
2021/03/15 07:23:49;;;;;;;2.20;1.30;;;22.30;50.00;;;;;;5034929;28;20438;-67
2021/03/15 07:26:16;;;;;;;1.47;1.03;;;22.30;49.90;;;;;;5035511;28;20476;-66
2021/03/15 07:28:43;;;;;;;1.53;1.00;;;22.30;50.00;;;;;;5034720;28;20453;-67
2021/03/15 07:31:20;;;;;;;1.87;1.33;;;22.30;50.00;;;;;;5034862;28;20506;-68
2021/03/15 07:33:55;;;;;;;1.20;1.00;;;22.30;49.90;;;;;;5034768;28;20402;-67
2021/03/15 07:36:28;;;;;;;2.23;1.37;;;22.30;50.00;;;;;;5034699;28;20447;-67
2021/03/15 07:38:55;;;;;;;1.70;1.17;;;22.30;49.90;;;;;;5033456;28;20468;-68
2021/03/15 07:41:22;;;;;;;1.33;0.97;;;22.30;49.90;;;;;;5034736;28;20410;-68
2021/03/15 07:43:48;;;;;;;1.67;0.90;;;22.30;49.90;;;;;;5034600;28;20429;-67
2021/03/15 07:46:27;;;;;;;3.70;1.13;;;22.30;49.90;;;;;;5034685;28;20463;-67
2021/03/15 07:48:56;;;;;;;1.30;1.00;;;22.30;49.90;;;;;;5034774;28;20516;-68
2021/03/15 07:51:33;;;;;;;1.57;1.30;;;22.30;49.90;;;;;;5034434;28;20415;-67
2021/03/15 07:54:09;;;;;;;1.30;1.00;;;22.40;50.00;;;;;;5034730;28;20422;-67
2021/03/15 07:56:36;;;;;;;1.23;1.13;;;22.40;50.00;;;;;;5033215;28;20833;-67
2021/03/15 07:59:02;;;;;;;1.50;1.20;;;22.30;49.90;;;;;;5033071;28;20495;-67
2021/03/15 08:01:28;;;;;;;1.83;1.10;;;22.30;49.90;;;;;;5033072;28;20426;-65
2021/03/15 08:03:54;;;;;;;1.20;1.10;;;22.30;49.90;;;;;;5034313;28;20752;-67
2021/03/15 08:06:21;;;;;;;1.97;1.30;;;22.30;49.90;;;;;;5034229;28;20172;-67
2021/03/15 08:08:48;;;;;;;1.40;1.30;;;22.30;49.90;;;;;;5034003;28;20544;-68
2021/03/15 08:11:16;;;;;;;1.90;1.17;;;22.30;49.90;;;;;;5034142;28;20407;-67
2021/03/15 08:13:54;;;;;;;1.63;1.10;;;22.30;49.90;;;;;;5034088;28;20410;-67
2021/03/15 08:16:21;;;;;;;1.20;0.90;;;22.30;50.50;;;;;;5034367;28;20473;-67
2021/03/15 08:18:49;;;;;;;1.40;1.00;;;22.40;50.00;;;;;;5034407;28;20438;-67
2021/03/15 08:21:26;;;;;;;1.97;1.27;;;22.40;50.00;;;;;;5034466;28;20414;-67
2021/03/15 08:23:54;;;;;;;1.40;1.00;;;22.30;49.90;;;;;;5032921;28;20414;-66
2021/03/15 08:26:21;;;;;;;1.40;1.00;;;22.30;49.90;;;;;;5032548;28;20422;-67
2021/03/15 08:28:50;;;;;;;1.90;1.30;;;22.30;49.90;;;;;;5033686;28;20454;-67
2021/03/15 08:31:23;;;;;;;1.60;1.20;;;22.30;49.90;;;;;;5033828;28;20421;-67
2021/03/15 08:33:50;;;;;;;2.03;1.00;;;22.30;49.90;;;;;;5033677;28;20948;-66
2021/03/15 08:36:17;;;;;;;1.50;1.13;;;22.30;49.90;;;;;;5033524;28;20422;-67
2021/03/15 08:38:43;;;;;;;1.40;1.00;;;22.30;49.90;;;;;;5033610;28;20542;-67
2021/03/15 08:41:22;;;;;;;1.83;1.10;;;22.30;49.90;;;;;;5033780;28;20922;-67
2021/03/15 08:43:49;;;;;;;2.17;1.10;;;22.30;49.90;;;;;;5033646;28;20820;-67
2021/03/15 08:46:33;;;;;;;1.90;1.10;;;22.30;49.90;;;;;;5034287;28;20884;-67
2021/03/15 08:49:01;;;;;;;1.97;1.00;;;22.30;49.90;;;;;;5033312;28;20458;-67
2021/03/15 08:51:33;;;;;;;1.87;1.33;;;22.40;50.00;;;;;;5033460;28;20421;-67
2021/03/15 08:54:03;;;;;;;2.40;1.30;;;22.40;50.00;;;;;;5033334;28;20905;-67
2021/03/15 08:56:28;;;;;;;1.87;1.20;;;22.40;49.90;;;;;;5033539;28;20415;-66
2021/03/15 08:58:55;;;;;;;1.97;1.50;;;22.40;50.00;;;;;;5033390;28;20437;-67
2021/03/15 09:01:42;;;;;;;1.67;1.00;;;22.30;49.80;;;;;;5033519;28;20182;-68
2021/03/15 09:04:08;;;;;;;1.53;1.00;;;22.30;49.80;;;;;;5025755;28;20476;-67
2021/03/15 09:06:36;;;;;;;1.90;1.30;;;22.30;50.40;;;;;;5033213;28;20410;-67
2021/03/15 09:09:05;;;;;;;1.80;1.03;;;22.30;49.80;;;;;;5033066;28;20203;-67
2021/03/15 09:11:42;;;;;;;1.10;0.90;;;22.40;49.90;;;;;;5033140;28;20410;-67
2021/03/15 09:14:14;;;;;;;1.30;1.17;;;22.40;49.90;;;;;;5033096;28;20752;-67
2021/03/15 09:16:53;;;;;;;2.40;1.07;;;22.40;49.90;;;;;;5031808;28;20774;-68
2021/03/15 09:19:32;;;;;;;1.77;1.23;;;22.40;49.90;;;;;;5033250;28;20939;-67
2021/03/15 09:22:00;;;;;;;1.40;1.10;;;22.40;49.90;;;;;;5033197;28;20394;-67
2021/03/15 09:24:45;;;;;;;1.43;1.03;;;22.40;49.90;;;;;;5032873;28;20445;-65
2021/03/15 09:27:27;;;;;;;1.63;1.13;;;22.40;49.90;;;;;;5031723;28;20767;-68
2021/03/15 09:30:13;;;;;;;1.70;0.93;;;22.40;49.90;;;;;;5033406;28;20434;-67
2021/03/15 09:32:44;;;;;;;1.63;1.00;;;22.40;49.90;;;;;;5032617;28;20905;-66
2021/03/15 09:35:22;;;;;;;1.23;0.80;;;22.40;49.90;;;;;;5032933;28;20403;-68
2021/03/15 09:38:00;;;;;;;1.90;1.13;;;22.40;49.90;;;;;;5032818;28;20601;-67
2021/03/15 09:40:36;;;;;;;1.60;1.10;;;22.40;49.90;;;;;;5033032;28;20918;-67
2021/03/15 09:43:03;;;;;;;1.70;1.17;;;22.40;50.00;;;;;;5032896;28;20413;-67
2021/03/15 09:45:32;;;;;;;1.40;0.90;;;22.40;49.90;;;;;;5034865;28;20410;-67
2021/03/15 09:47:58;;;;;;;1.83;1.00;;;22.40;49.90;;;;;;5037012;28;20450;-68
2021/03/15 09:50:27;;;;;;;1.83;1.20;;;22.40;49.90;;;;;;5035476;28;20441;-67
2021/03/15 09:52:52;;;;;;;1.60;1.20;;;22.40;49.90;;;;;;5036802;28;20175;-68
2021/03/15 09:55:19;;;;;;;2.10;1.20;;;22.40;49.90;;;;;;5036679;28;20403;-67
2021/03/15 09:57:44;;;;;;;2.77;1.07;;;22.40;49.90;;;;;;5036666;28;20178;-67
2021/03/15 10:00:16;;;;;;;1.17;1.00;;;22.40;49.90;;;;;;5036406;28;20801;-67
2021/03/15 10:02:44;;;;;;;1.77;1.17;;;22.40;49.90;;;;;;5036518;28;20614;-67
2021/03/15 10:05:17;;;;;;;1.67;1.00;;;22.40;49.90;;;;;;5036548;28;20414;-67
2021/03/15 10:07:47;;;;;;;4.50;1.50;;;22.40;49.90;;;;;;5035299;28;20473;-66
2021/03/15 10:10:15;;;;;;;1.50;1.00;;;22.40;50.00;;;;;;5036400;28;20423;-67
2021/03/15 10:12:41;;;;;;;1.27;1.00;;;22.40;50.00;;;;;;5037127;28;20469;-67
2021/03/15 10:15:12;;;;;;;2.07;1.30;;;22.40;50.00;;;;;;5038108;28;21045;-66
2021/03/15 10:17:41;;;;;;;1.93;1.20;;;22.40;49.90;;;;;;5037650;28;20387;-66
2021/03/15 10:20:09;;;;;;;1.87;1.27;;;22.50;50.00;;;;;;5037594;28;20434;-64
2021/03/15 10:22:35;;;;;;;3.50;1.90;;;22.50;50.00;;;;;;5037859;28;20929;-67
2021/03/15 10:25:02;;;;;;;3.20;1.53;;;22.50;50.00;;;;;;5036929;28;20489;-67
2021/03/15 10:27:30;;;;;;;3.47;2.07;;;22.50;49.90;;;;;;5036642;28;20449;-67
2021/03/15 10:30:11;;;;;;;3.87;2.13;;;22.60;50.00;;;;;;5037318;28;20794;-67
2021/03/15 10:32:40;;;;;;;3.13;2.10;;;22.60;49.90;;;;;;5035419;28;20410;-67
2021/03/15 10:35:08;;;;;;;3.23;2.30;;;22.60;49.90;;;;;;5037021;28;20411;-67
2021/03/15 10:37:37;;;;;;;3.17;2.40;;;22.60;49.80;;;;;;5036629;28;20879;-66
2021/03/15 10:40:05;;;;;;;3.87;2.10;;;22.60;49.90;;;;;;5036342;28;20432;-66
2021/03/15 10:42:31;;;;;;;3.00;2.00;;;22.60;49.80;;;;;;5036194;28;20417;-66
2021/03/15 10:44:59;;;;;;;4.30;2.80;;;22.70;49.90;;;;;;5036571;28;20437;-66
2021/03/15 10:47:35;;;;;;;2.87;2.37;;;22.70;49.90;;;;;;5036307;28;20406;-66
2021/03/15 10:50:02;;;;;;;5.03;3.63;;;22.70;49.90;;;;;;5036667;28;20952;-66
2021/03/15 10:52:34;;;;;;;3.03;2.20;;;22.70;49.90;;;;;;5036430;28;20850;-66
2021/03/15 10:55:11;;;;;;;4.80;1.97;;;22.70;49.90;;;;;;5036711;28;20830;-65
2021/03/15 10:57:37;;;;;;;3.93;2.27;;;22.70;49.90;;;;;;5034837;28;20489;-66
2021/03/15 11:00:22;;;;;;;2.97;2.00;;;22.70;49.90;;;;;;5036653;28;20422;-67
2021/03/15 11:02:47;;;;;;;3.13;2.07;;;22.70;49.90;;;;;;5035125;28;20877;-66
2021/03/15 11:05:16;;;;;;;3.50;2.43;;;22.80;50.00;;;;;;5034845;28;20417;-66
2021/03/15 11:07:42;;;;;;;5.20;3.10;;;22.70;49.90;;;;;;5036456;28;20178;-66
2021/03/15 11:10:17;;;;;;;4.37;2.60;;;22.80;49.90;;;;;;5036160;28;20488;-66
2021/03/15 11:12:54;;;;;;;3.73;2.17;;;22.80;50.10;;;;;;5036949;28;20468;-67
2021/03/15 11:15:23;;;;;;;4.73;2.27;;;22.80;50.00;;;;;;5036764;28;20393;-67
2021/03/15 11:18:05;;;;;;;5.53;2.43;;;22.80;50.00;;;;;;5035271;28;20929;-65
2021/03/15 11:20:38;;;;;;;4.57;2.27;;;22.80;49.90;;;;;;5036532;28;20797;-67
2021/03/15 11:23:04;;;;;;;3.97;2.77;;;22.80;50.00;;;;;;5035108;28;20437;-66
2021/03/15 11:25:31;;;;;;;3.97;2.80;;;22.80;49.90;;;;;;5034972;28;20414;-66
2021/03/15 11:28:10;;;;;;;6.10;3.10;;;22.80;49.90;;;;;;5034869;28;20481;-66
2021/03/15 11:30:36;;;;;;;3.60;2.40;;;22.80;49.80;;;;;;5035263;28;20437;-67
2021/03/15 11:33:10;;;;;;;3.73;2.00;;;22.80;49.90;;;;;;5034860;28;20413;-66
2021/03/15 11:35:38;;;;;;;3.83;2.63;;;22.80;49.80;;;;;;5034830;28;20407;-67
2021/03/15 11:38:04;;;;;;;4.63;2.80;;;22.80;49.90;;;;;;5034722;28;20427;-67
2021/03/15 11:40:33;;;;;;;3.00;2.30;;;22.80;49.90;;;;;;5034752;28;20426;-67
2021/03/15 11:42:59;;;;;;;4.33;2.57;;;22.80;50.10;;;;;;5034684;28;20402;-67
2021/03/15 11:45:27;;;;;;;3.10;2.80;;;22.80;50.00;;;;;;5034661;28;20473;-67
2021/03/15 11:47:53;;;;;;;4.27;2.73;;;22.80;49.90;;;;;;5034757;28;20477;-68
2021/03/15 11:50:19;;;;;;;6.13;2.63;;;22.80;49.90;;;;;;5034484;28;20418;-67
2021/03/15 11:52:45;;;;;;;9.87;3.47;;;22.80;49.90;;;;;;5034439;28;20902;-68
2021/03/15 11:55:12;;;;;;;3.27;2.20;;;22.90;50.00;;;;;;5034473;28;20410;-67
2021/03/15 11:57:38;;;;;;;3.30;2.40;;;22.90;50.00;;;;;;5034684;28;20614;-66
2021/03/15 12:00:07;;;;;;;3.77;2.17;;;22.90;50.00;;;;;;5034323;28;20983;-67
2021/03/15 12:02:33;;;;;;;3.50;2.47;;;22.90;50.10;;;;;;5034302;28;20934;-67
2021/03/15 12:04:59;;;;;;;4.73;2.83;;;22.90;50.00;;;;;;5034266;28;20406;-67
2021/03/15 12:07:25;;;;;;;3.23;2.50;;;22.90;49.90;;;;;;5032557;28;20420;-67
2021/03/15 12:09:50;;;;;;;6.33;2.13;;;22.90;49.90;;;;;;5032832;28;20207;-67
2021/03/15 12:12:18;;;;;;;2.57;2.10;;;22.90;50.00;;;;;;5034058;28;20175;-67
2021/03/15 12:14:44;;;;;;;3.63;2.57;;;22.90;49.90;;;;;;5034002;28;20210;-67
2021/03/15 12:17:09;;;;;;;3.67;2.30;;;22.90;50.00;;;;;;5034283;28;20406;-66
2021/03/15 12:19:35;;;;;;;5.07;2.40;;;22.90;49.90;;;;;;5033606;28;20203;-67
2021/03/15 12:22:01;;;;;;;6.07;2.43;;;22.90;50.00;;;;;;5033313;28;20177;-66
2021/03/15 12:24:27;;;;;;;2.83;2.40;;;22.90;50.00;;;;;;5034649;28;20171;-66
2021/03/15 12:26:52;;;;;;;4.00;2.50;;;22.90;50.00;;;;;;5034382;28;20282;-63
2021/03/15 12:29:18;;;;;;;3.50;1.97;;;22.90;50.00;;;;;;5033827;28;20713;-65
2021/03/15 12:31:43;;;;;;;5.43;2.80;;;22.80;50.50;;;;;;5034252;28;20176;-67
2021/03/15 12:34:09;;;;;;;4.03;2.50;;;22.80;49.90;;;;;;5033916;28;20555;-67
2021/03/15 12:36:35;;;;;;;2.50;1.90;;;22.80;50.00;;;;;;5033619;28;20194;-67
2021/03/15 12:39:00;;;;;;;3.13;2.33;;;22.90;50.10;;;;;;5033605;28;20569;-67
2021/03/15 12:41:26;;;;;;;4.30;2.27;;;22.80;49.90;;;;;;5033642;28;20658;-67
2021/03/15 12:43:51;;;;;;;4.33;2.57;;;22.80;50.00;;;;;;5033578;28;20174;-67
2021/03/15 12:46:20;;;;;;;2.87;2.30;;;22.80;50.00;;;;;;5032291;28;20172;-67
2021/03/15 12:48:46;;;;;;;4.10;2.13;;;22.80;50.00;;;;;;5033366;28;20269;-66
2021/03/15 12:51:13;;;;;;;4.97;1.97;;;22.80;50.00;;;;;;5032216;28;20779;-67
2021/03/15 12:53:39;;;;;;;4.80;1.80;;;22.80;49.90;;;;;;5033396;28;20406;-67
2021/03/15 12:56:05;;;;;;;2.43;2.10;;;22.80;50.00;;;;;;5033389;28;20417;-67
2021/03/15 12:58:31;;;;;;;3.03;2.00;;;22.80;50.50;;;;;;5033439;28;20253;-68
2021/03/15 13:00:57;;;;;;;2.40;2.17;;;22.80;49.90;;;;;;5033307;28;20409;-67